createdAt,value
2018-03-25T00:02:19.476Z,1.80
2018-03-25T00:04:47.001Z,1.70
2018-03-25T00:07:15.146Z,1.70
2018-03-25T00:09:42.676Z,1.70
2018-03-25T00:12:10.974Z,1.70
2018-03-25T00:14:38.869Z,1.70
2018-03-25T00:17:06.401Z,1.70
2018-03-25T00:19:33.935Z,1.70
2018-03-25T00:22:01.480Z,1.70
2018-03-25T00:24:28.992Z,1.70
2018-03-25T00:26:56.769Z,1.60
2018-03-25T00:29:24.280Z,1.60
2018-03-25T00:31:51.813Z,1.60
2018-03-25T00:34:20.103Z,1.60
2018-03-25T00:36:47.623Z,1.60
2018-03-25T00:39:15.968Z,1.60
2018-03-25T00:41:43.480Z,1.50
2018-03-25T00:44:11.017Z,1.50
2018-03-25T00:46:39.470Z,1.50
2018-03-25T00:49:07.005Z,1.60
2018-03-25T00:51:34.520Z,1.50
2018-03-25T00:54:02.816Z,1.40
2018-03-25T00:56:30.336Z,1.40
2018-03-25T00:58:57.875Z,1.40
2018-03-25T01:01:26.174Z,1.50
2018-03-25T01:03:53.704Z,1.40
2018-03-25T01:06:21.221Z,1.40
2018-03-25T01:08:49.527Z,1.40
2018-03-25T01:11:17.044Z,1.40
2018-03-25T01:13:44.609Z,1.50
2018-03-25T01:16:12.133Z,1.50
2018-03-25T01:18:41.364Z,1.50
2018-03-25T01:21:08.882Z,1.40
2018-03-25T01:23:36.420Z,1.40
2018-03-25T01:26:03.974Z,1.30
2018-03-25T01:28:31.512Z,1.30
2018-03-25T01:30:59.065Z,1.30
2018-03-25T01:33:26.581Z,1.30
2018-03-25T01:35:54.107Z,1.30
2018-03-25T01:38:22.421Z,1.30
2018-03-25T01:40:49.964Z,1.30
2018-03-25T01:43:17.693Z,1.30
2018-03-25T01:45:45.252Z,1.30
2018-03-25T01:48:12.771Z,1.30
2018-03-25T01:50:40.299Z,1.30
2018-03-25T01:53:07.829Z,1.30
2018-03-25T01:55:36.135Z,1.20
2018-03-25T01:58:03.679Z,1.20
2018-03-25T02:00:31.212Z,1.20
2018-03-25T02:02:58.745Z,1.20
2018-03-25T02:05:26.276Z,1.20
2018-03-25T02:07:54.559Z,1.10
2018-03-25T02:10:22.140Z,1.10
2018-03-25T02:12:49.773Z,1.10
2018-03-25T02:15:17.303Z,1.10
2018-03-25T02:17:44.820Z,1.00
2018-03-25T02:20:13.131Z,1.00
2018-03-25T02:22:40.673Z,1.00
2018-03-25T02:25:08.203Z,1.00
2018-03-25T02:27:35.750Z,1.00
2018-03-25T02:30:03.292Z,1.00
2018-03-25T02:32:30.862Z,0.90
2018-03-25T02:34:58.412Z,0.90
2018-03-25T02:37:25.929Z,0.90
2018-03-25T02:39:53.468Z,0.90
2018-03-25T02:42:20.985Z,0.90
2018-03-25T02:44:49.297Z,1.00
2018-03-25T02:47:16.839Z,1.00
2018-03-25T02:49:44.405Z,0.90
2018-03-25T02:52:11.923Z,0.90
2018-03-25T02:54:39.457Z,0.90
2018-03-25T02:57:06.984Z,0.80
2018-03-25T02:59:34.500Z,0.80
2018-03-25T03:02:02.818Z,0.90
2018-03-25T03:04:31.054Z,0.90
2018-03-25T03:06:58.594Z,0.80
2018-03-25T03:09:26.123Z,0.80
2018-03-25T03:11:53.655Z,0.90
2018-03-25T03:14:21.936Z,0.80
2018-03-25T03:16:49.485Z,0.70
2018-03-25T03:19:17.001Z,0.70
2018-03-25T03:21:45.309Z,0.80
2018-03-25T03:24:12.829Z,0.70
2018-03-25T03:26:40.414Z,0.80
2018-03-25T03:29:07.928Z,0.80
2018-03-25T03:31:35.476Z,0.70
2018-03-25T03:34:03.000Z,0.70
2018-03-25T03:36:30.535Z,0.70
2018-03-25T03:38:58.824Z,0.60
2018-03-25T03:41:26.360Z,0.60
2018-03-25T03:43:53.892Z,0.60
2018-03-25T03:46:21.426Z,0.60
2018-03-25T03:48:49.705Z,0.70
2018-03-25T03:51:17.236Z,0.70
2018-03-25T03:53:45.512Z,0.60
2018-03-25T03:56:13.040Z,0.60
2018-03-25T03:58:41.336Z,0.60
2018-03-25T04:01:08.879Z,0.60
2018-03-25T04:03:36.432Z,0.60
2018-03-25T04:06:03.963Z,0.60
2018-03-25T04:08:31.477Z,0.60
2018-03-25T04:10:59.058Z,0.60
2018-03-25T04:13:26.574Z,0.60
2018-03-25T04:15:54.903Z,0.60
2018-03-25T04:18:22.420Z,0.60
2018-03-25T04:20:49.940Z,0.60
2018-03-25T04:23:17.476Z,0.50
2018-03-25T04:25:46.284Z,0.50
2018-03-25T04:28:13.832Z,0.50
2018-03-25T04:30:41.376Z,0.50
2018-03-25T04:33:08.915Z,0.50
2018-03-25T04:35:36.440Z,0.40
2018-03-25T04:38:03.999Z,0.40
2018-03-25T04:40:31.523Z,0.40
2018-03-25T04:42:59.052Z,0.40
2018-03-25T04:45:26.569Z,0.50
2018-03-25T04:47:55.090Z,0.50
2018-03-25T04:50:22.613Z,0.50
2018-03-25T04:52:50.160Z,0.50
2018-03-25T04:55:17.680Z,0.50
2018-03-25T04:57:45.725Z,0.50
2018-03-25T05:00:13.240Z,0.50
2018-03-25T05:02:40.767Z,0.50
2018-03-25T05:05:08.279Z,0.50
2018-03-25T05:07:36.583Z,0.60
2018-03-25T05:10:04.897Z,0.60
2018-03-25T05:12:32.439Z,0.60
2018-03-25T05:15:00.760Z,0.70
2018-03-25T05:17:28.292Z,0.70
2018-03-25T05:19:55.808Z,0.70
2018-03-25T05:22:23.341Z,0.70
2018-03-25T05:24:50.879Z,0.80
2018-03-25T05:27:19.280Z,0.80
2018-03-25T05:29:46.806Z,0.80
2018-03-25T05:32:14.365Z,0.90
2018-03-25T05:34:42.006Z,1.00
2018-03-25T05:37:09.569Z,1.10
2018-03-25T05:39:37.101Z,1.20
2018-03-25T05:42:04.639Z,1.30
2018-03-25T05:44:32.183Z,1.40
2018-03-25T05:46:59.708Z,1.50
2018-03-25T05:49:27.237Z,1.60
2018-03-25T05:51:55.526Z,1.70
2018-03-25T05:54:23.064Z,1.70
2018-03-25T05:56:50.908Z,1.80
2018-03-25T05:59:19.230Z,2.00
2018-03-25T06:01:48.056Z,2.00
2018-03-25T06:04:15.593Z,2.00
2018-03-25T06:06:43.100Z,2.10
2018-03-25T06:09:10.631Z,2.20
2018-03-25T06:11:38.144Z,2.30
2018-03-25T06:14:05.679Z,2.40
2018-03-25T06:16:33.201Z,2.40
2018-03-25T06:19:01.503Z,2.50
2018-03-25T06:21:29.023Z,2.50
2018-03-25T06:23:56.552Z,2.60
2018-03-25T06:26:24.088Z,2.70
2018-03-25T06:28:52.400Z,2.90
2018-03-25T06:31:19.923Z,2.90
2018-03-25T06:33:48.246Z,3.00
2018-03-25T06:36:15.764Z,3.10
2018-03-25T06:38:43.301Z,3.20
2018-03-25T06:41:10.813Z,3.40
2018-03-25T06:43:38.361Z,3.50
2018-03-25T06:46:05.935Z,3.60
2018-03-25T06:48:33.529Z,3.80
2018-03-25T06:51:01.023Z,3.90
2018-03-25T06:53:28.551Z,4.10
2018-03-25T06:55:56.084Z,4.10
2018-03-25T06:58:23.681Z,4.20
2018-03-25T07:00:52.003Z,4.10
2018-03-25T07:03:19.558Z,4.10
2018-03-25T07:05:47.088Z,4.10
2018-03-25T07:08:14.610Z,4.10
2018-03-25T07:10:42.295Z,4.20
2018-03-25T07:13:10.646Z,4.50
2018-03-25T07:15:38.200Z,4.50
2018-03-25T07:18:05.716Z,4.60
2018-03-25T07:20:33.248Z,4.80
2018-03-25T07:23:00.778Z,5.00
2018-03-25T07:25:29.085Z,5.10
2018-03-25T07:27:56.599Z,5.10
2018-03-25T07:30:25.016Z,5.20
2018-03-25T07:32:52.576Z,5.20
2018-03-25T07:35:20.111Z,5.20
2018-03-25T07:37:47.624Z,5.30
2018-03-25T07:40:15.204Z,5.30
2018-03-25T07:42:42.732Z,5.50
2018-03-25T07:45:10.270Z,5.60
2018-03-25T07:47:37.783Z,5.70
2018-03-25T07:50:05.415Z,5.90
2018-03-25T07:52:32.899Z,6.00
2018-03-25T07:55:00.433Z,6.10
2018-03-25T07:57:27.960Z,6.20
2018-03-25T07:59:55.511Z,6.30
2018-03-25T08:02:23.036Z,6.40
2018-03-25T08:04:51.543Z,6.50
2018-03-25T08:07:19.078Z,6.50
2018-03-25T08:09:46.650Z,6.60
2018-03-25T08:12:14.163Z,6.80
2018-03-25T08:14:41.689Z,6.90
2018-03-25T08:17:09.232Z,7.00
2018-03-25T08:19:36.747Z,7.10
2018-03-25T08:22:04.353Z,7.20
2018-03-25T08:24:31.863Z,7.30
2018-03-25T08:26:59.442Z,7.30
2018-03-25T08:29:26.985Z,7.30
2018-03-25T08:31:54.513Z,7.40
2018-03-25T08:34:22.032Z,7.60
2018-03-25T08:36:51.274Z,7.80
2018-03-25T08:39:18.788Z,7.70
2018-03-25T08:41:46.316Z,7.90
2018-03-25T08:44:13.840Z,7.90
2018-03-25T08:46:42.151Z,8.00
2018-03-25T08:49:09.672Z,8.00
2018-03-25T08:51:37.215Z,8.10
2018-03-25T08:54:04.738Z,8.00
2018-03-25T08:56:33.064Z,8.10
2018-03-25T08:59:00.571Z,8.10
2018-03-25T09:01:28.105Z,8.20
2018-03-25T09:03:55.675Z,8.20
2018-03-25T09:06:23.227Z,8.40
2018-03-25T09:08:51.931Z,8.40
2018-03-25T09:11:19.640Z,8.50
2018-03-25T09:13:47.252Z,8.40
2018-03-25T09:16:15.552Z,8.40
2018-03-25T09:18:43.069Z,8.40
2018-03-25T09:21:10.607Z,8.50
2018-03-25T09:23:38.184Z,8.60
2018-03-25T09:26:05.700Z,8.70
2018-03-25T09:28:33.228Z,8.80
2018-03-25T09:31:00.755Z,8.80
2018-03-25T09:33:28.297Z,8.80
2018-03-25T09:35:55.899Z,8.90
2018-03-25T09:38:23.433Z,9.00
2018-03-25T09:40:51.044Z,9.10
2018-03-25T09:43:19.365Z,9.30
2018-03-25T09:45:46.918Z,9.30
2018-03-25T09:48:15.367Z,9.60
2018-03-25T09:50:42.919Z,9.60
2018-03-25T09:53:10.447Z,9.60
2018-03-25T09:55:37.969Z,9.70
2018-03-25T09:58:05.514Z,9.60
2018-03-25T10:00:36.880Z,9.60
2018-03-25T10:03:10.107Z,9.50
2018-03-25T10:05:38.391Z,9.80
2018-03-25T10:08:05.976Z,9.80
2018-03-25T10:10:33.614Z,9.80
2018-03-25T10:13:01.160Z,9.80
2018-03-25T10:15:28.679Z,9.90
2018-03-25T10:17:56.220Z,10.00
2018-03-25T10:20:23.751Z,10.20
2018-03-25T10:22:51.308Z,10.30
2018-03-25T10:25:20.477Z,10.40
2018-03-25T10:27:48.020Z,10.40
2018-03-25T10:30:15.649Z,10.40
2018-03-25T10:32:43.944Z,10.50
2018-03-25T10:35:11.479Z,10.40
2018-03-25T10:37:39.011Z,10.40
2018-03-25T10:40:07.307Z,10.60
2018-03-25T10:42:34.878Z,10.50
2018-03-25T10:45:02.391Z,10.70
2018-03-25T10:47:29.920Z,10.70
2018-03-25T10:49:57.487Z,10.90
2018-03-25T10:52:25.029Z,10.90
2018-03-25T10:54:52.576Z,11.10
2018-03-25T10:57:21.084Z,11.10
2018-03-25T10:59:48.656Z,11.10
2018-03-25T11:02:16.377Z,11.20
2018-03-25T11:04:44.809Z,11.20
2018-03-25T11:07:12.311Z,11.10
2018-03-25T11:09:39.880Z,11.00
2018-03-25T11:12:07.401Z,11.00
2018-03-25T11:14:34.957Z,10.90
2018-03-25T11:17:02.512Z,10.90
2018-03-25T11:19:30.060Z,11.00
2018-03-25T11:21:57.771Z,11.00
2018-03-25T11:24:25.315Z,11.10
2018-03-25T11:26:52.861Z,11.10
2018-03-25T11:29:21.238Z,11.40
2018-03-25T11:31:48.817Z,11.40
2018-03-25T11:34:16.357Z,11.40
2018-03-25T11:36:43.904Z,11.50
2018-03-25T11:39:11.502Z,11.50
2018-03-25T11:41:39.914Z,11.50
2018-03-25T11:44:07.454Z,11.50
2018-03-25T11:46:35.000Z,11.60
2018-03-25T11:49:02.649Z,11.60
2018-03-25T11:51:30.167Z,11.70
2018-03-25T11:53:57.754Z,11.60
2018-03-25T11:56:25.299Z,11.70
2018-03-25T11:58:52.932Z,11.60
2018-03-25T12:01:20.471Z,11.60
2018-03-25T12:03:48.044Z,11.60
2018-03-25T12:06:15.612Z,11.50
2018-03-25T12:08:43.920Z,11.60
2018-03-25T12:11:11.472Z,11.60
2018-03-25T12:13:39.014Z,11.60
2018-03-25T12:16:06.554Z,11.70
2018-03-25T12:18:35.116Z,11.70
2018-03-25T12:21:02.698Z,11.80
2018-03-25T12:23:31.023Z,11.90
2018-03-25T12:25:58.570Z,11.90
2018-03-25T12:28:26.103Z,11.90
2018-03-25T12:30:53.666Z,11.90
2018-03-25T12:33:21.256Z,12.00
2018-03-25T12:35:49.608Z,12.10
2018-03-25T12:38:17.914Z,12.00
2018-03-25T12:40:45.465Z,12.00
2018-03-25T12:43:13.018Z,12.00
2018-03-25T12:45:40.564Z,12.00
2018-03-25T12:48:08.115Z,12.10
2018-03-25T12:50:35.661Z,12.20
2018-03-25T12:53:03.204Z,12.20
2018-03-25T12:55:30.736Z,12.20
2018-03-25T12:57:58.254Z,12.10
2018-03-25T13:00:26.562Z,12.10
2018-03-25T13:02:54.110Z,12.10
2018-03-25T13:05:21.672Z,12.30
2018-03-25T13:07:49.229Z,12.40
2018-03-25T13:10:17.552Z,12.40
2018-03-25T13:12:45.116Z,12.40
2018-03-25T13:15:12.673Z,12.40
2018-03-25T13:17:40.239Z,12.40
2018-03-25T13:20:07.780Z,12.30
2018-03-25T13:22:36.069Z,12.30
2018-03-25T13:25:03.621Z,12.30
2018-03-25T13:27:31.143Z,12.40
2018-03-25T13:29:58.688Z,12.50
2018-03-25T13:32:26.272Z,12.40
2018-03-25T13:34:53.792Z,12.50
2018-03-25T13:37:21.332Z,12.70
2018-03-25T13:39:49.006Z,12.80
2018-03-25T13:42:16.545Z,12.90
2018-03-25T13:44:44.226Z,13.00
2018-03-25T13:47:12.545Z,13.00
2018-03-25T13:49:40.204Z,13.00
2018-03-25T13:52:07.746Z,12.70
2018-03-25T13:54:35.288Z,12.80
2018-03-25T13:57:02.834Z,12.90
2018-03-25T13:59:30.360Z,13.00
2018-03-25T14:01:57.897Z,13.20
2018-03-25T14:04:25.453Z,13.30
2018-03-25T14:06:52.987Z,13.50
2018-03-25T14:09:20.506Z,13.50
2018-03-25T14:11:48.812Z,13.50
2018-03-25T14:14:16.499Z,13.50
2018-03-25T14:16:45.168Z,13.60
2018-03-25T14:19:12.702Z,13.60
2018-03-25T14:21:40.241Z,13.60
2018-03-25T14:24:07.802Z,13.50
2018-03-25T14:26:35.340Z,13.30
2018-03-25T14:29:02.872Z,13.30
2018-03-25T14:31:30.420Z,13.30
2018-03-25T14:33:57.968Z,13.30
2018-03-25T14:36:25.578Z,13.40
2018-03-25T14:38:53.152Z,13.40
2018-03-25T14:41:20.757Z,13.60
2018-03-25T14:43:48.293Z,13.50
2018-03-25T14:46:15.855Z,13.60
2018-03-25T14:48:43.384Z,13.70
2018-03-25T14:51:10.965Z,13.80
2018-03-25T14:53:38.666Z,14.00
2018-03-25T14:56:06.281Z,14.20
2018-03-25T14:58:33.865Z,14.40
2018-03-25T15:01:01.424Z,14.50
2018-03-25T15:03:28.978Z,14.60
2018-03-25T15:05:56.500Z,14.60
2018-03-25T15:08:24.051Z,14.60
2018-03-25T15:10:51.576Z,14.60
2018-03-25T15:13:19.895Z,14.30
2018-03-25T15:15:47.439Z,14.20
2018-03-25T15:18:14.994Z,14.00
2018-03-25T15:20:42.513Z,13.80
2018-03-25T15:23:10.137Z,13.60
2018-03-25T15:25:37.704Z,13.30
2018-03-25T15:28:05.248Z,13.30
2018-03-25T15:30:32.790Z,13.40
2018-03-25T15:33:01.984Z,13.40
2018-03-25T15:35:29.510Z,13.50
2018-03-25T15:37:57.071Z,13.60
2018-03-25T15:40:24.631Z,13.80
2018-03-25T15:42:52.260Z,13.80
2018-03-25T15:45:19.785Z,14.00
2018-03-25T15:47:47.361Z,14.10
2018-03-25T15:50:14.983Z,14.20
2018-03-25T15:52:42.576Z,14.30
2018-03-25T15:55:10.110Z,14.40
2018-03-25T15:57:37.648Z,14.40
2018-03-25T16:00:05.202Z,14.50
2018-03-25T16:02:32.802Z,14.50
2018-03-25T16:05:01.994Z,14.90
2018-03-25T16:07:29.532Z,14.80
2018-03-25T16:09:57.091Z,14.80
2018-03-25T16:12:24.705Z,14.60
2018-03-25T16:14:52.232Z,14.40
2018-03-25T16:17:20.569Z,14.30
2018-03-25T16:19:48.121Z,14.30
2018-03-25T16:22:15.686Z,14.20
2018-03-25T16:24:43.999Z,13.70
2018-03-25T16:27:11.549Z,13.70
2018-03-25T16:29:39.152Z,13.60
2018-03-25T16:32:06.782Z,13.60
2018-03-25T16:34:35.076Z,13.40
2018-03-25T16:37:03.636Z,13.40
2018-03-25T16:39:31.229Z,13.30
2018-03-25T16:41:58.794Z,13.20
2018-03-25T16:44:27.243Z,13.40
2018-03-25T16:46:54.807Z,13.40
2018-03-25T16:49:23.116Z,13.60
2018-03-25T16:51:51.666Z,13.50
2018-03-25T16:54:19.286Z,13.30
2018-03-25T16:56:46.849Z,12.90
2018-03-25T16:59:14.422Z,12.50
2018-03-25T17:01:41.951Z,12.20
2018-03-25T17:04:09.535Z,11.90
2018-03-25T17:06:37.072Z,11.60
2018-03-25T17:09:04.653Z,11.30
2018-03-25T17:11:32.948Z,10.80
2018-03-25T17:14:00.528Z,10.80
2018-03-25T17:16:28.048Z,10.70
2018-03-25T17:18:55.606Z,10.50
2018-03-25T17:21:23.223Z,10.30
2018-03-25T17:23:50.878Z,10.20
2018-03-25T17:26:18.453Z,10.10
2018-03-25T17:28:46.090Z,10.00
2018-03-25T17:31:13.678Z,10.10
2018-03-25T17:33:42.035Z,9.90
2018-03-25T17:36:10.368Z,9.80
2018-03-25T17:38:37.897Z,9.80
2018-03-25T17:41:05.444Z,9.80
2018-03-25T17:43:33.444Z,9.80
2018-03-25T17:46:00.956Z,9.70
2018-03-25T17:48:28.598Z,9.70
2018-03-25T17:50:56.126Z,9.80
2018-03-25T17:53:23.777Z,9.70
2018-03-25T17:55:51.912Z,9.70
2018-03-25T17:58:19.494Z,9.70
2018-03-25T18:00:47.004Z,9.70
2018-03-25T18:03:14.576Z,9.70
2018-03-25T18:05:42.259Z,9.80
2018-03-25T18:08:10.643Z,9.80
2018-03-25T18:10:38.340Z,9.70
2018-03-25T18:13:05.913Z,9.70
2018-03-25T18:15:33.513Z,9.60
2018-03-25T18:18:01.098Z,9.60
2018-03-25T18:20:28.627Z,9.60
2018-03-25T18:22:56.164Z,9.50
2018-03-25T18:25:23.706Z,9.50
2018-03-25T18:27:51.471Z,9.50
2018-03-25T18:30:19.001Z,9.40
2018-03-25T18:32:46.542Z,9.40
2018-03-25T18:35:14.083Z,9.30
2018-03-25T18:37:41.630Z,9.40
2018-03-25T18:40:09.164Z,9.30
2018-03-25T18:42:36.682Z,9.30
2018-03-25T18:45:05.162Z,9.30
2018-03-25T18:47:32.725Z,9.30
2018-03-25T18:50:00.274Z,9.30
2018-03-25T18:52:27.832Z,9.30
2018-03-25T18:54:55.380Z,9.30
2018-03-25T18:57:22.907Z,9.20
2018-03-25T18:59:50.432Z,9.20
2018-03-25T19:02:17.998Z,9.10
2018-03-25T19:04:45.541Z,9.10
2018-03-25T19:07:13.107Z,9.10
2018-03-25T19:09:40.663Z,9.10
2018-03-25T19:12:08.206Z,9.10
2018-03-25T19:14:35.742Z,9.10
2018-03-25T19:17:03.298Z,9.00
2018-03-25T19:19:31.582Z,9.00
2018-03-25T19:21:59.197Z,9.00
2018-03-25T19:24:26.728Z,9.00
2018-03-25T19:26:54.288Z,9.00
2018-03-25T19:29:21.806Z,8.90
2018-03-25T19:31:49.355Z,8.90
2018-03-25T19:34:16.882Z,8.90
2018-03-25T19:36:44.482Z,8.80
2018-03-25T19:39:12.769Z,8.80
2018-03-25T19:41:40.308Z,8.80
2018-03-25T19:44:07.828Z,8.80
2018-03-25T19:46:36.146Z,8.80
2018-03-25T19:49:03.781Z,8.80
2018-03-25T19:51:31.343Z,8.80
2018-03-25T19:53:59.001Z,8.80
2018-03-25T19:56:26.519Z,8.80
2018-03-25T19:58:54.065Z,8.80
2018-03-25T20:01:21.610Z,8.80
2018-03-25T20:03:49.155Z,8.80
2018-03-25T20:06:16.694Z,8.80
2018-03-25T20:08:44.223Z,8.80
2018-03-25T20:11:11.797Z,8.70
2018-03-25T20:13:39.354Z,8.70
2018-03-25T20:16:07.146Z,8.70
2018-03-25T20:18:35.464Z,8.70
2018-03-25T20:21:03.016Z,8.70
2018-03-25T20:23:30.577Z,8.60
2018-03-25T20:25:59.719Z,8.60
2018-03-25T20:28:27.369Z,8.60
2018-03-25T20:30:54.914Z,8.60
2018-03-25T20:33:22.560Z,8.60
2018-03-25T20:35:50.080Z,8.60
2018-03-25T20:38:17.620Z,8.60
2018-03-25T20:40:45.196Z,8.60
2018-03-25T20:43:12.744Z,8.50
2018-03-25T20:45:40.304Z,8.50
2018-03-25T20:48:09.387Z,8.60
2018-03-25T20:50:38.428Z,8.60
2018-03-25T20:53:05.995Z,8.60
2018-03-25T20:55:33.507Z,8.60
2018-03-25T20:58:01.105Z,8.50
2018-03-25T21:00:28.744Z,8.50
2018-03-25T21:02:56.266Z,8.60
2018-03-25T21:05:23.840Z,8.50
2018-03-25T21:07:51.500Z,8.40
2018-03-25T21:10:19.809Z,8.40
2018-03-25T21:12:47.330Z,8.40
2018-03-25T21:15:14.876Z,8.40
2018-03-25T21:17:42.503Z,8.40
2018-03-25T21:20:10.805Z,8.30
2018-03-25T21:22:38.402Z,8.30
2018-03-25T21:25:05.937Z,8.30
2018-03-25T21:27:34.227Z,8.30
2018-03-25T21:30:01.815Z,8.30
2018-03-25T21:32:29.367Z,8.30
2018-03-25T21:34:56.928Z,8.20
2018-03-25T21:37:24.554Z,8.20
2018-03-25T21:39:52.245Z,8.10
2018-03-25T21:42:20.636Z,8.20
2018-03-25T21:44:48.184Z,8.20
2018-03-25T21:47:15.737Z,8.10
2018-03-25T21:49:43.301Z,8.10
2018-03-25T21:52:11.262Z,8.10
2018-03-25T21:54:39.599Z,8.10
2018-03-25T21:57:07.243Z,8.00
2018-03-25T21:59:34.792Z,8.10
2018-03-25T22:02:02.325Z,8.10
2018-03-25T22:04:29.892Z,8.00
2018-03-25T22:06:57.416Z,8.00
2018-03-25T22:09:24.991Z,8.00
2018-03-25T22:11:52.526Z,7.90
2018-03-25T22:14:20.055Z,7.90
2018-03-25T22:16:47.660Z,7.90
2018-03-25T22:19:15.949Z,7.80
2018-03-25T22:21:43.482Z,7.80
2018-03-25T22:24:11.095Z,7.80
2018-03-25T22:26:38.757Z,7.80
2018-03-25T22:29:07.061Z,7.80
2018-03-25T22:31:34.594Z,7.80
2018-03-25T22:34:02.121Z,7.80
2018-03-25T22:36:29.656Z,7.80
2018-03-25T22:38:57.932Z,7.70
2018-03-25T22:41:25.469Z,7.70
2018-03-25T22:43:53.774Z,7.80
2018-03-25T22:46:21.581Z,7.70
2018-03-25T22:48:49.142Z,7.70
2018-03-25T22:51:16.714Z,7.70
2018-03-25T22:53:44.272Z,7.70
2018-03-25T22:56:11.907Z,7.70
2018-03-25T22:58:39.424Z,7.70
2018-03-25T23:01:06.957Z,7.70
2018-03-25T23:03:34.473Z,7.70
2018-03-25T23:06:02.804Z,7.60
2018-03-25T23:08:30.333Z,7.60
2018-03-25T23:10:57.892Z,7.60
2018-03-25T23:13:25.418Z,7.70
2018-03-25T23:15:53.008Z,7.60
2018-03-25T23:18:20.535Z,7.70
2018-03-25T23:20:48.081Z,7.70
2018-03-25T23:23:15.592Z,7.70
2018-03-25T23:25:43.127Z,7.70
2018-03-25T23:28:11.825Z,7.60
2018-03-25T23:30:39.420Z,7.60
2018-03-25T23:33:07.696Z,7.70
2018-03-25T23:35:35.269Z,7.70
2018-03-25T23:38:02.787Z,7.60
2018-03-25T23:40:30.313Z,7.60
2018-03-25T23:42:58.616Z,7.60
2018-03-25T23:45:26.132Z,7.50
2018-03-25T23:47:53.668Z,7.50
2018-03-25T23:50:21.943Z,7.40
2018-03-25T23:52:49.494Z,7.40
2018-03-25T23:55:17.007Z,7.40
2018-03-25T23:57:44.546Z,7.40
